Current Conditions
Clear
Conditions



Pressure
29.99 (inHG) - 1015.62 (mb)
Visibility

10.0 (miles) - 16.1 (km)
Temperature
66  °F
Temperature
55  °F
Dewpoint
68  %
 Humidity
Wind Speed
3  mph
3  kts
5  km/h
1.3  m/s
Wind Direction
N
45°
E
90°
135°
S
180°
225°
W
270°
315°
 260°

Due West
Airport Data
KSTC
Saint Cloud Regional Airport
Metar :KSTC 052353Z 26003KT 10SM CLR 19/13 A2999 RMK AO2 SLP161 T01940128 10233 20194 53002
Wed 5th October 18:53 pm
Raw Metar Info
Raw METAR is the most common format in the world for the transmission of observational weather data. It is highly standardized through the International Civil Aviation Organization (ICAO), which allows it to be understood throughout most of the world.
API Info
Data Provided by
https://www.checkwx.com/weather/KSTC

Aviation Weather providing METAR, TAF, AIRMET, SIGMET and OUTLOOK Weather Reports
© Info
CSS/SVG/PHP scripts were developed by weather34 for use in the weather34 template © 2015-2022

Guide Info provided by Metar-Wikipedia